Time;durP1;ratioP1;P1;durP2;ratioP2;P2;SDS_P1;SDS_P2;PMS_P1;PMS_P2;Temp;Humidity;BMP_temperature;BMP_pressure;BME280_temperature;BME280_humidity;BME280_pressure;Samples;Min_cycle;Max_cycle;Signal;HPM_P1;HPM_P2
2022/02/11 00:02:04;;;;;;;7.80;1.10;;;3.50;99.90;;;;;;5040182;28;20491;-81
2022/02/11 00:08:58;;;;;;;12.02;1.55;;;3.50;99.90;;;;;;5062268;28;20040;-80
2022/02/11 00:11:34;;;;;;;8.57;0.90;;;3.40;99.90;;;;;;5067744;28;20056;-80
2022/02/11 00:14:00;;;;;;;8.68;0.90;;;3.40;99.90;;;;;;5051936;28;20442;-80
2022/02/11 00:16:26;;;;;;;11.32;1.95;;;3.40;99.90;;;;;;5053380;28;20111;-81
2022/02/11 00:18:51;;;;;;;12.95;1.60;;;3.40;99.90;;;;;;5044101;28;20029;-80
2022/02/11 00:21:20;;;;;;;9.68;1.45;;;3.40;99.90;;;;;;5060439;28;20476;-81
2022/02/11 00:23:46;;;;;;;10.32;1.40;;;3.30;99.90;;;;;;5069679;28;20395;-80
2022/02/11 00:26:12;;;;;;;11.07;1.75;;;3.30;99.90;;;;;;5066149;28;20036;-80
2022/02/11 00:33:41;;;;;;;11.68;1.20;;;3.20;99.90;;;;;;5052676;28;20025;-80
2022/02/11 00:36:09;;;;;;;12.23;1.50;;;3.30;99.90;;;;;;5052219;28;20033;-80
2022/02/11 01:05:26;;;;;;;11.30;1.23;;;3.20;99.90;;;;;;5041357;28;20070;-80
2022/02/11 01:07:51;;;;;;;9.27;1.00;;;3.20;99.90;;;;;;5051306;28;20036;-80
2022/02/11 01:10:18;;;;;;;8.25;1.25;;;3.20;99.90;;;;;;5070192;28;20023;-80
2022/02/11 01:12:44;;;;;;;8.23;1.50;;;3.20;99.90;;;;;;5053189;28;20029;-80
2022/02/11 01:15:10;;;;;;;9.18;1.33;;;3.20;99.90;;;;;;5041567;28;20021;-80
2022/02/11 01:17:44;;;;;;;7.93;1.10;;;3.20;99.90;;;;;;5038781;28;20055;-80
2022/02/11 01:20:17;;;;;;;8.50;1.27;;;3.20;99.90;;;;;;5069723;28;20063;-80
2022/02/11 01:23:00;;;;;;;;;;;3.20;99.90;;;;;;5039595;28;20400;-80
2022/02/11 01:28:17;;;;;;;10.57;0.93;;;3.30;99.90;;;;;;5058298;28;20068;-80
2022/02/11 01:31:06;;;;;;;7.90;1.35;;;3.30;99.90;;;;;;5062570;28;20048;-80
2022/02/11 01:33:45;;;;;;;9.07;0.80;;;3.40;99.90;;;;;;5059711;28;20029;-79
2022/02/11 01:39:23;;;;;;;10.35;0.93;;;3.60;99.90;;;;;;5067037;28;20499;-80
2022/02/11 01:44:58;;;;;;;11.07;1.33;;;3.60;99.90;;;;;;5058110;28;20035;-78
2022/02/11 02:26:26;;;;;;;14.95;1.20;;;4.10;99.90;;;;;;5067757;28;20431;-81
2022/02/11 02:59:17;;;;;;;;;;;3.90;99.90;;;;;;5057490;28;20025;-81
2022/02/11 03:01:55;;;;;;;9.90;1.40;;;3.90;99.90;;;;;;5055442;28;20331;-82
2022/02/11 03:14:41;;;;;;;6.38;1.40;;;3.90;99.90;;;;;;5058131;28;20044;-81
2022/02/11 03:16:03;;;;;;;12.20;1.23;;;4.00;99.90;;;;;;5053397;28;20074;-81
2022/02/11 03:54:17;;;;;;;16.05;0.80;;;4.50;99.90;;;;;;5051616;28;20048;-82
2022/02/11 04:08:22;;;;;;;11.50;1.38;;;4.40;99.90;;;;;;5059046;28;20074;-81
2022/02/11 04:22:04;;;;;;;11.20;1.20;;;4.60;99.90;;;;;;5054779;28;20504;-81
2022/02/11 04:56:44;;;;;;;9.68;0.80;;;5.30;99.90;;;;;;5057174;28;20521;-80
2022/02/11 05:01:54;;;;;;;11.40;1.40;;;5.20;99.90;;;;;;5061956;28;20515;-80
2022/02/11 05:04:19;;;;;;;16.05;1.98;;;5.10;99.90;;;;;;5051105;28;20028;-81
2022/02/11 05:06:45;;;;;;;12.77;0.93;;;5.10;99.90;;;;;;5044881;28;20033;-80
2022/02/11 05:09:11;;;;;;;12.73;1.67;;;5.10;99.90;;;;;;5081559;28;20047;-81
2022/02/11 05:11:36;;;;;;;19.50;1.30;;;5.00;99.90;;;;;;5050012;28;20025;-80
2022/02/11 05:14:04;;;;;;;11.48;1.40;;;5.10;99.90;;;;;;5057572;28;20059;-79
2022/02/11 05:16:30;;;;;;;20.38;1.00;;;5.00;99.90;;;;;;5041046;28;20105;-77
2022/02/11 05:18:55;;;;;;;16.83;0.90;;;5.00;99.90;;;;;;5073654;28;20111;-80
2022/02/11 05:21:21;;;;;;;14.60;1.73;;;5.00;99.90;;;;;;5074006;28;20020;-78
2022/02/11 05:23:47;;;;;;;18.83;1.40;;;5.10;99.90;;;;;;5069048;28;20033;-77
2022/02/11 05:26:12;;;;;;;13.93;1.40;;;5.10;99.90;;;;;;5067851;28;20388;-77
2022/02/11 05:28:38;;;;;;;10.93;1.55;;;5.10;99.90;;;;;;5041179;28;20037;-78
2022/02/11 05:31:03;;;;;;;21.88;1.85;;;5.10;99.90;;;;;;5054299;28;20473;-77
2022/02/11 05:33:29;;;;;;;19.27;1.45;;;5.20;99.90;;;;;;5036013;28;20118;-77
2022/02/11 05:35:55;;;;;;;13.75;1.35;;;5.20;99.90;;;;;;5043636;28;20511;-77
2022/02/11 05:38:21;;;;;;;16.20;1.20;;;5.20;99.90;;;;;;5062569;28;20404;-79
2022/02/11 05:40:46;;;;;;;17.60;1.05;;;5.20;99.90;;;;;;5058487;28;20024;-78
2022/02/11 05:43:12;;;;;;;20.48;1.65;;;5.20;99.90;;;;;;5055948;28;20219;-79
2022/02/11 05:45:38;;;;;;;11.57;1.23;;;5.20;99.90;;;;;;5065262;28;20441;-78
2022/02/11 05:48:05;;;;;;;17.77;1.48;;;5.20;99.90;;;;;;5059719;28;20041;-79
2022/02/11 05:50:30;;;;;;;12.93;1.35;;;5.20;99.90;;;;;;5054204;28;20412;-79
2022/02/11 05:52:56;;;;;;;11.65;1.55;;;5.20;99.90;;;;;;5064925;28;20016;-79
2022/02/11 05:55:22;;;;;;;20.38;1.80;;;5.20;99.90;;;;;;5054015;28;20479;-78
2022/02/11 05:57:47;;;;;;;14.70;1.00;;;5.20;99.90;;;;;;5053665;28;20040;-78
2022/02/11 06:00:13;;;;;;;15.57;1.95;;;5.20;99.90;;;;;;5056131;28;20029;-78
2022/02/11 06:02:39;;;;;;;11.13;1.10;;;5.20;99.90;;;;;;5063815;28;20025;-78
2022/02/11 06:05:05;;;;;;;15.48;2.03;;;5.30;99.90;;;;;;5067076;28;20024;-77
2022/02/11 06:07:30;;;;;;;12.30;0.80;;;5.30;99.90;;;;;;5060177;28;20069;-79
2022/02/11 06:09:58;;;;;;;20.13;1.00;;;5.30;99.90;;;;;;5058554;28;20044;-79
2022/02/11 06:12:24;;;;;;;15.27;0.85;;;5.20;99.90;;;;;;5060591;28;20029;-77
2022/02/11 06:14:49;;;;;;;19.58;1.05;;;5.30;99.90;;;;;;5070760;28;20091;-78
2022/02/11 06:17:16;;;;;;;16.52;1.45;;;5.30;99.90;;;;;;5054038;28;20443;-78
2022/02/11 06:19:45;;;;;;;11.15;1.70;;;5.10;99.90;;;;;;5053854;28;20139;-78
2022/02/11 06:22:11;;;;;;;6.78;0.57;;;4.90;99.90;;;;;;5035773;28;20032;-78
2022/02/11 06:24:36;;;;;;;11.65;0.75;;;4.50;99.90;;;;;;5057081;28;20020;-78
2022/02/11 06:27:02;;;;;;;11.80;1.05;;;4.30;99.90;;;;;;5059493;28;20404;-77
2022/02/11 06:29:28;;;;;;;9.63;0.60;;;4.00;99.90;;;;;;5052365;28;20074;-77
2022/02/11 06:31:53;;;;;;;7.72;0.60;;;3.90;99.90;;;;;;5069101;28;20040;-78
2022/02/11 06:34:18;;;;;;;7.28;0.73;;;3.70;99.90;;;;;;5052429;28;20131;-77
2022/02/11 06:36:44;;;;;;;5.38;0.40;;;3.70;99.90;;;;;;5054426;28;20025;-76
2022/02/11 06:39:10;;;;;;;5.78;0.50;;;3.60;99.90;;;;;;5067589;28;20032;-78
2022/02/11 06:41:35;;;;;;;5.18;0.50;;;3.60;99.90;;;;;;5066086;28;20040;-78
2022/02/11 06:44:00;;;;;;;8.25;0.93;;;3.60;99.90;;;;;;5052822;28;20033;-77
2022/02/11 06:46:26;;;;;;;13.00;1.45;;;3.60;99.90;;;;;;5054294;28;20040;-78
2022/02/11 06:48:52;;;;;;;5.45;0.40;;;3.60;99.90;;;;;;5052850;28;20037;-78
2022/02/11 06:51:17;;;;;;;5.75;0.60;;;3.50;99.90;;;;;;5056690;28;20025;-79
2022/02/11 06:53:43;;;;;;;11.02;0.68;;;3.50;99.90;;;;;;5067510;28;20591;-77
2022/02/11 06:56:09;;;;;;;6.43;0.73;;;3.60;99.90;;;;;;5064147;28;20477;-78
2022/02/11 06:58:35;;;;;;;14.20;1.27;;;3.60;99.90;;;;;;5064503;28;20029;-78
2022/02/11 07:01:00;;;;;;;11.90;0.60;;;3.60;99.90;;;;;;5037796;28;20029;-78
2022/02/11 07:03:26;;;;;;;10.68;0.60;;;3.60;99.90;;;;;;5046720;28;20366;-78
2022/02/11 07:05:55;;;;;;;6.32;0.30;;;3.60;99.90;;;;;;5062652;28;20103;-78
2022/02/11 07:08:20;;;;;;;16.15;1.10;;;3.60;99.90;;;;;;5069713;28;20387;-77
2022/02/11 07:10:46;;;;;;;10.75;0.60;;;3.60;99.90;;;;;;5068763;28;20044;-77
2022/02/11 07:13:14;;;;;;;6.78;0.60;;;3.60;99.90;;;;;;5041287;28;20036;-79
2022/02/11 07:15:42;;;;;;;13.00;0.63;;;3.60;99.90;;;;;;5054211;28;20055;-79
2022/02/11 07:18:08;;;;;;;14.07;0.80;;;3.60;99.90;;;;;;5062941;28;20052;-78
2022/02/11 07:20:34;;;;;;;11.90;0.60;;;3.60;99.90;;;;;;5059281;28;20115;-79
2022/02/11 07:22:59;;;;;;;13.27;1.33;;;3.60;99.90;;;;;;5065958;28;20032;-79
2022/02/11 07:25:25;;;;;;;13.98;0.88;;;3.70;99.90;;;;;;5054801;28;20024;-80
2022/02/11 07:27:50;;;;;;;11.82;1.25;;;3.70;99.90;;;;;;5053086;28;20405;-79
2022/02/11 07:30:17;;;;;;;16.58;0.88;;;3.70;99.90;;;;;;5055856;28;20084;-78
2022/02/11 07:32:43;;;;;;;11.50;0.73;;;3.70;99.90;;;;;;5053705;28;20029;-79
2022/02/11 07:35:08;;;;;;;14.13;1.17;;;3.80;99.90;;;;;;5061568;28;20048;-79
2022/02/11 07:37:35;;;;;;;12.43;1.10;;;3.80;99.90;;;;;;5040481;28;20078;-80
2022/02/11 07:40:02;;;;;;;19.60;1.23;;;3.80;99.90;;;;;;5053272;28;20029;-79
2022/02/11 07:42:29;;;;;;;16.60;1.13;;;3.90;99.90;;;;;;5052980;28;20031;-78
2022/02/11 07:44:57;;;;;;;15.07;1.00;;;4.00;99.90;;;;;;5050404;28;20020;-79
2022/02/11 07:47:23;;;;;;;10.52;0.90;;;4.00;99.90;;;;;;5035202;28;20040;-79
2022/02/11 07:49:49;;;;;;;16.02;2.05;;;4.10;99.90;;;;;;5053951;28;20032;-80
2022/02/11 07:52:15;;;;;;;12.07;1.13;;;4.10;99.90;;;;;;5048493;28;20033;-79
2022/02/11 07:54:42;;;;;;;12.07;1.17;;;4.20;99.90;;;;;;5044503;28;20397;-79
2022/02/11 07:57:08;;;;;;;13.93;1.50;;;4.30;99.90;;;;;;5055976;28;20025;-80
2022/02/11 07:59:34;;;;;;;10.68;1.10;;;4.30;99.90;;;;;;5058168;28;20464;-79
2022/02/11 08:01:59;;;;;;;17.15;0.80;;;4.30;99.90;;;;;;5031471;28;20059;-79
2022/02/11 08:04:25;;;;;;;7.95;0.57;;;4.30;99.90;;;;;;5056860;28;20028;-78
2022/02/11 08:06:50;;;;;;;6.72;0.73;;;4.30;99.90;;;;;;5051583;28;20040;-80
2022/02/11 08:09:16;;;;;;;5.72;1.45;;;4.20;99.90;;;;;;5033283;28;20033;-79
2022/02/11 08:11:42;;;;;;;11.35;1.25;;;4.20;99.90;;;;;;5051864;28;20432;-80
2022/02/11 08:14:07;;;;;;;12.40;1.08;;;4.20;99.90;;;;;;5051483;28;20025;-80
2022/02/11 08:16:33;;;;;;;17.25;2.00;;;4.20;99.90;;;;;;5033253;28;20033;-80
2022/02/11 08:18:59;;;;;;;15.25;1.13;;;4.20;99.90;;;;;;5051958;28;20068;-80
2022/02/11 08:21:24;;;;;;;10.20;0.73;;;4.20;99.90;;;;;;5055266;28;20025;-79
2022/02/11 08:23:51;;;;;;;11.90;0.80;;;4.20;99.90;;;;;;5075684;28;20032;-79
2022/02/11 08:26:16;;;;;;;10.02;0.90;;;4.20;99.90;;;;;;5068743;28;20021;-80
2022/02/11 08:28:42;;;;;;;13.10;1.20;;;4.20;99.90;;;;;;5058901;28;20041;-79
2022/02/11 08:31:08;;;;;;;12.85;1.02;;;4.20;99.90;;;;;;5065694;28;20051;-79
2022/02/11 08:33:33;;;;;;;14.15;1.40;;;4.30;99.90;;;;;;5051982;28;20036;-79
2022/02/11 08:35:59;;;;;;;13.38;0.80;;;4.30;99.90;;;;;;5070767;28;20033;-79
2022/02/11 08:38:26;;;;;;;10.00;1.17;;;4.40;99.90;;;;;;5069352;28;20025;-79
2022/02/11 08:40:52;;;;;;;16.40;1.40;;;4.50;99.90;;;;;;5056795;28;20033;-79
2022/02/11 08:43:19;;;;;;;11.15;2.58;;;4.60;99.90;;;;;;5056427;28;20039;-78
2022/02/11 08:45:45;;;;;;;19.77;1.02;;;4.60;99.90;;;;;;5065996;28;20409;-78
2022/02/11 08:48:12;;;;;;;22.63;1.67;;;4.60;99.90;;;;;;5062607;28;20362;-78
2022/02/11 08:50:39;;;;;;;16.45;1.80;;;4.60;99.90;;;;;;5073976;28;20016;-78
2022/02/11 08:53:06;;;;;;;17.65;1.35;;;4.60;99.90;;;;;;5055349;28;20028;-78
2022/02/11 08:55:32;;;;;;;15.68;1.52;;;4.60;99.90;;;;;;5055766;28;20496;-78
2022/02/11 08:57:59;;;;;;;19.70;1.45;;;4.70;99.90;;;;;;5073285;28;20040;-78
2022/02/11 09:00:26;;;;;;;23.55;3.08;;;4.70;99.90;;;;;;5056541;28;20032;-78
2022/02/11 09:02:52;;;;;;;16.15;0.75;;;4.80;99.90;;;;;;5054745;28;20123;-78
2022/02/11 09:05:21;;;;;;;9.45;0.90;;;4.80;99.90;;;;;;5068694;28;20112;-79
2022/02/11 09:07:51;;;;;;;13.18;0.80;;;4.80;99.90;;;;;;5069188;28;20461;-79
2022/02/11 09:10:16;;;;;;;9.70;0.85;;;4.80;99.90;;;;;;5073400;28;20103;-79
2022/02/11 09:12:42;;;;;;;12.48;0.80;;;4.80;99.90;;;;;;5073158;28;20059;-78
2022/02/11 09:15:07;;;;;;;17.27;0.80;;;4.90;99.90;;;;;;5055199;28;20016;-78
2022/02/11 09:17:33;;;;;;;15.93;1.05;;;4.90;99.90;;;;;;5073616;28;20153;-78
2022/02/11 09:19:58;;;;;;;12.85;1.63;;;5.00;99.90;;;;;;5062494;28;20044;-78
2022/02/11 09:22:24;;;;;;;12.35;1.05;;;5.00;99.90;;;;;;5053936;28;20029;-78
2022/02/11 09:24:51;;;;;;;14.77;1.77;;;5.10;99.90;;;;;;5054657;28;20025;-79
2022/02/11 09:27:17;;;;;;;11.48;0.95;;;5.10;99.90;;;;;;5070642;28;20036;-79
2022/02/11 09:29:43;;;;;;;13.23;1.33;;;5.30;99.90;;;;;;5068455;28;20021;-79
2022/02/11 09:32:09;;;;;;;10.88;1.27;;;5.30;99.90;;;;;;5061936;28;20404;-79
2022/02/11 09:34:37;;;;;;;11.95;1.05;;;5.40;99.90;;;;;;5062512;28;20052;-78
2022/02/11 09:37:03;;;;;;;22.05;1.35;;;5.50;99.90;;;;;;5057450;28;20017;-79
2022/02/11 09:39:28;;;;;;;18.77;1.88;;;5.60;99.90;;;;;;5055801;28;20503;-78
2022/02/11 09:41:54;;;;;;;16.23;1.58;;;5.70;99.90;;;;;;5061595;28;20033;-79
2022/02/11 09:44:24;;;;;;;14.85;1.73;;;5.70;99.90;;;;;;5062170;28;20040;-79
2022/02/11 09:46:51;;;;;;;21.65;1.50;;;5.70;99.90;;;;;;5055479;28;20035;-80
2022/02/11 09:49:17;;;;;;;13.73;1.05;;;5.60;99.90;;;;;;5071711;28;20669;-79
2022/02/11 09:51:44;;;;;;;18.20;1.98;;;5.70;99.90;;;;;;5054144;28;20020;-79
2022/02/11 09:54:16;;;;;;;15.63;1.23;;;5.70;99.90;;;;;;5053416;28;20029;-78
2022/02/11 09:56:43;;;;;;;10.18;1.20;;;5.70;99.90;;;;;;5055830;28;20100;-78
2022/02/11 09:59:09;;;;;;;13.43;1.35;;;5.70;99.90;;;;;;5053445;28;20037;-79
2022/02/11 10:01:35;;;;;;;19.88;1.35;;;5.80;99.90;;;;;;5054481;28;20497;-80
2022/02/11 10:04:09;;;;;;;21.77;2.25;;;5.70;99.90;;;;;;5055180;28;20025;-79
2022/02/11 10:06:35;;;;;;;19.70;1.83;;;5.80;99.90;;;;;;5043305;28;20090;-79
2022/02/11 10:09:01;;;;;;;20.77;1.33;;;5.80;99.90;;;;;;5039525;28;20036;-77
2022/02/11 10:11:27;;;;;;;19.08;1.13;;;5.90;99.90;;;;;;5062387;28;20384;-78
2022/02/11 10:13:55;;;;;;;15.23;1.15;;;6.00;99.90;;;;;;5035908;28;20032;-79
2022/02/11 10:16:24;;;;;;;18.75;1.20;;;6.00;99.90;;;;;;5035693;28;20021;-79
2022/02/11 10:18:51;;;;;;;17.23;1.13;;;6.10;99.90;;;;;;5036325;28;20497;-79
2022/02/11 10:21:23;;;;;;;16.40;1.17;;;6.20;99.90;;;;;;5053606;28;20574;-79
2022/02/11 10:23:51;;;;;;;14.40;1.50;;;6.40;99.90;;;;;;5053414;28;20036;-79
2022/02/11 10:26:18;;;;;;;20.02;1.92;;;6.50;99.90;;;;;;5054869;28;20376;-79
2022/02/11 10:28:55;;;;;;;15.48;1.13;;;6.70;99.90;;;;;;5071436;28;20032;-76
2022/02/11 10:31:29;;;;;;;15.07;1.10;;;6.80;99.90;;;;;;5061837;28;20681;-77
2022/02/11 10:34:05;;;;;;;19.10;0.75;;;6.90;99.90;;;;;;5066360;28;20041;-79
2022/02/11 10:36:33;;;;;;;9.65;0.80;;;7.10;99.90;;;;;;5062087;28;20025;-78
2022/02/11 10:39:21;;;;;;;7.57;1.00;;;7.30;98.20;;;;;;5061090;28;20028;-79
2022/02/11 10:41:52;;;;;;;12.68;0.90;;;7.40;98.60;;;;;;5045004;28;20032;-77
2022/02/11 10:44:34;;;;;;;10.85;0.88;;;7.40;94.10;;;;;;5038754;28;20032;-78
2022/02/11 10:47:04;;;;;;;12.15;0.98;;;7.30;93.10;;;;;;5058170;28;20032;-78
2022/02/11 10:49:38;;;;;;;11.68;2.05;;;7.10;93.10;;;;;;5055928;28;20453;-78
2022/02/11 10:52:24;;;;;;;12.30;0.80;;;7.00;91.50;;;;;;5060697;28;20047;-79
2022/02/11 10:54:55;;;;;;;13.00;0.77;;;6.80;90.00;;;;;;5068760;28;20025;-79
2022/02/11 10:57:23;;;;;;;12.35;1.08;;;6.70;89.40;;;;;;5051970;28;20060;-78
2022/02/11 10:59:50;;;;;;;13.85;2.40;;;6.60;87.30;;;;;;5067303;28;20357;-78
2022/02/11 11:02:22;;;;;;;7.40;0.70;;;6.50;88.30;;;;;;5052591;28;20060;-79
2022/02/11 11:04:53;;;;;;;11.00;0.82;;;6.50;86.80;;;;;;5052971;28;20049;-81
2022/02/11 11:07:22;;;;;;;8.80;0.47;;;6.40;84.10;;;;;;5053017;28;20116;-76
2022/02/11 11:09:48;;;;;;;5.32;0.50;;;6.20;82.50;;;;;;5067215;28;20029;-79
2022/02/11 11:12:15;;;;;;;5.10;0.63;;;6.10;81.70;;;;;;5064086;28;20021;-80
2022/02/11 11:14:42;;;;;;;10.00;0.60;;;6.10;82.70;;;;;;5052674;28;20104;-78
2022/02/11 11:17:08;;;;;;;9.85;0.60;;;6.10;81.50;;;;;;5052851;28;20025;-79
2022/02/11 11:19:36;;;;;;;9.07;0.93;;;6.20;82.20;;;;;;5052393;28;20116;-79
2022/02/11 11:22:15;;;;;;;8.70;1.00;;;6.30;84.40;;;;;;5052382;28;20049;-80
2022/02/11 11:25:05;;;;;;;11.05;1.33;;;6.50;83.40;;;;;;5056209;28;20052;-79
2022/02/11 11:27:44;;;;;;;12.05;0.95;;;6.50;84.80;;;;;;5059786;28;20051;-79
2022/02/11 11:30:33;;;;;;;7.78;0.47;;;6.60;84.60;;;;;;5057075;28;20052;-78
2022/02/11 11:33:25;;;;;;;7.60;0.57;;;6.70;82.30;;;;;;5052266;28;20501;-79
2022/02/11 11:35:53;;;;;;;9.40;0.60;;;6.80;78.10;;;;;;5051836;28;20037;-79
2022/02/11 11:38:22;;;;;;;8.60;0.50;;;6.80;77.90;;;;;;5052252;28;20556;-79
2022/02/11 11:41:20;;;;;;;6.05;0.40;;;6.90;78.20;;;;;;5052398;28;20075;-79
2022/02/11 11:43:56;;;;;;;8.32;0.52;;;6.90;73.80;;;;;;5068077;28;20060;-76
2022/02/11 11:46:25;;;;;;;7.07;0.47;;;7.00;74.80;;;;;;5057172;28;20033;-75
2022/02/11 11:49:09;;;;;;;2.85;0.40;;;7.00;71.80;;;;;;5051895;28;20250;-77
2022/02/11 11:51:55;;;;;;;6.70;0.60;;;7.00;72.70;;;;;;5051731;28;20100;-77
2022/02/11 11:54:23;;;;;;;9.27;0.63;;;7.00;71.20;;;;;;5051263;28;20513;-76
2022/02/11 11:57:09;;;;;;;6.60;0.40;;;7.10;69.80;;;;;;5056968;28;20025;-78
2022/02/11 11:59:55;;;;;;;5.97;0.43;;;7.10;70.50;;;;;;5055081;28;20367;-80
2022/02/11 12:02:26;;;;;;;5.43;0.50;;;7.30;71.30;;;;;;5051574;28;20036;-80
2022/02/11 12:04:56;;;;;;;6.38;0.63;;;7.50;70.30;;;;;;5052073;28;20031;-80
2022/02/11 12:07:35;;;;;;;7.57;0.70;;;7.50;69.60;;;;;;5051170;28;20024;-80
2022/02/11 12:10:05;;;;;;;5.45;0.65;;;7.50;70.30;;;;;;5054731;28;20073;-80
2022/02/11 12:12:32;;;;;;;5.85;0.60;;;7.50;70.20;;;;;;5060419;28;20111;-78
2022/02/11 12:15:00;;;;;;;6.85;0.50;;;7.40;70.90;;;;;;5051888;28;20092;-81
2022/02/11 12:17:27;;;;;;;12.13;0.50;;;7.30;68.20;;;;;;5051483;28;20071;-80
2022/02/11 12:19:53;;;;;;;5.00;0.77;;;7.20;68.50;;;;;;5051467;28;20021;-80
2022/02/11 12:22:21;;;;;;;7.72;0.57;;;7.10;69.50;;;;;;5051014;28;20032;-79
2022/02/11 12:27:37;;;;;;;5.07;0.80;;;6.90;69.70;;;;;;5040083;28;20129;-80
2022/02/11 12:30:05;;;;;;;12.63;0.70;;;6.90;70.70;;;;;;5068943;28;20099;-79
2022/02/11 12:32:37;;;;;;;4.97;0.30;;;7.00;68.50;;;;;;5069318;28;20032;-80
2022/02/11 12:35:04;;;;;;;5.95;0.50;;;7.20;69.30;;;;;;5061005;28;20149;-80
2022/02/11 12:37:32;;;;;;;9.95;0.40;;;7.50;67.70;;;;;;5048381;28;20040;-78
2022/02/11 12:40:11;;;;;;;7.25;0.35;;;7.60;66.90;;;;;;5043532;28;20056;-80
2022/02/11 12:42:42;;;;;;;8.13;0.60;;;7.70;68.10;;;;;;5050445;28;20040;-80
2022/02/11 12:45:10;;;;;;;4.15;0.40;;;7.90;67.30;;;;;;5033930;28;20017;-80
2022/02/11 12:47:37;;;;;;;5.75;0.77;;;8.00;66.60;;;;;;5050923;28;20029;-80
2022/02/11 12:50:04;;;;;;;5.45;0.40;;;8.10;66.10;;;;;;5047942;28;20058;-80
2022/02/11 12:52:34;;;;;;;8.57;0.50;;;8.20;66.10;;;;;;5033264;28;20029;-80
2022/02/11 12:55:10;;;;;;;6.72;0.45;;;8.30;66.80;;;;;;5058265;28;20036;-80
2022/02/11 12:57:37;;;;;;;10.30;0.60;;;8.50;66.40;;;;;;5069473;28;20029;-80
2022/02/11 13:00:05;;;;;;;8.25;0.70;;;8.40;65.20;;;;;;5059175;28;20104;-80
2022/02/11 13:02:34;;;;;;;7.05;0.50;;;8.50;66.50;;;;;;5055445;28;20087;-80
2022/02/11 13:05:15;;;;;;;7.78;0.60;;;8.50;65.60;;;;;;5061577;28;20147;-80
2022/02/11 13:07:46;;;;;;;5.63;0.60;;;8.40;65.90;;;;;;5053154;28;20048;-79
2022/02/11 13:10:21;;;;;;;11.82;0.70;;;8.20;66.20;;;;;;5068727;28;20028;-80
2022/02/11 13:12:49;;;;;;;5.50;0.55;;;8.10;67.00;;;;;;5074240;28;20024;-80
2022/02/11 13:15:17;;;;;;;4.82;0.40;;;7.90;67.40;;;;;;5056211;28;20035;-80
2022/02/11 13:17:44;;;;;;;13.30;1.00;;;7.80;68.10;;;;;;5075004;28;20021;-80
2022/02/11 13:20:13;;;;;;;8.98;0.70;;;7.60;68.40;;;;;;5065365;28;20032;-79
2022/02/11 13:22:41;;;;;;;7.70;0.47;;;7.40;69.50;;;;;;5042122;28;20477;-81
2022/02/11 13:25:07;;;;;;;5.35;0.60;;;7.30;70.30;;;;;;5050820;28;20476;-81
2022/02/11 13:27:40;;;;;;;9.63;1.20;;;7.20;70.90;;;;;;5073457;28;20425;-80
2022/02/11 13:30:07;;;;;;;5.22;0.30;;;7.10;71.70;;;;;;5038711;28;20493;-80
2022/02/11 13:32:32;;;;;;;7.53;0.40;;;7.00;72.50;;;;;;5053557;28;20025;-80
2022/02/11 13:35:09;;;;;;;8.00;0.57;;;7.00;73.20;;;;;;5054826;28;20052;-80
2022/02/11 13:37:36;;;;;;;6.75;0.57;;;7.00;74.20;;;;;;5057446;28;20067;-77
2022/02/11 13:40:20;;;;;;;10.25;1.15;;;7.10;74.20;;;;;;5061723;28;20112;-78
2022/02/11 13:42:55;;;;;;;8.07;0.50;;;7.10;74.50;;;;;;5069044;28;20039;-78
2022/02/11 13:45:21;;;;;;;7.78;0.60;;;7.30;74.90;;;;;;5049133;28;20029;-79
2022/02/11 13:48:02;;;;;;;7.85;0.40;;;7.40;73.40;;;;;;5057625;28;20048;-78
2022/02/11 13:50:28;;;;;;;8.68;0.52;;;7.50;73.10;;;;;;5046975;28;20447;-78
2022/02/11 13:53:03;;;;;;;5.38;0.30;;;7.70;72.00;;;;;;5057629;28;20498;-79
2022/02/11 13:55:31;;;;;;;8.75;0.50;;;7.90;70.90;;;;;;5040105;28;20159;-79
2022/02/11 13:57:56;;;;;;;6.40;0.50;;;8.00;70.20;;;;;;5061968;28;20024;-79
2022/02/11 14:00:36;;;;;;;6.60;0.40;;;8.30;69.80;;;;;;5060096;28;20126;-79
2022/02/11 14:03:02;;;;;;;9.57;0.50;;;8.40;69.30;;;;;;5058380;28;20127;-79
2022/02/11 14:05:29;;;;;;;7.55;0.63;;;8.40;68.30;;;;;;5047652;28;20085;-79
2022/02/11 14:07:55;;;;;;;11.85;0.68;;;8.40;65.60;;;;;;5058808;28;20086;-80
2022/02/11 14:10:22;;;;;;;8.48;0.60;;;8.20;64.70;;;;;;5045991;28;20032;-80
2022/02/11 14:12:48;;;;;;;2.70;0.40;;;8.00;64.60;;;;;;5062597;28;20040;-80
2022/02/11 14:15:16;;;;;;;2.55;0.43;;;7.80;65.10;;;;;;5054431;28;20094;-80
2022/02/11 14:17:43;;;;;;;6.80;0.60;;;7.70;64.00;;;;;;5073866;28;20106;-80
2022/02/11 14:20:09;;;;;;;6.45;0.50;;;7.50;63.80;;;;;;5073406;28;20021;-80
2022/02/11 14:22:36;;;;;;;8.35;0.40;;;7.40;64.10;;;;;;5060596;28;20028;-78
2022/02/11 14:25:01;;;;;;;5.50;0.50;;;7.40;65.10;;;;;;5060761;28;20029;-78
2022/02/11 14:27:28;;;;;;;6.03;0.50;;;7.40;65.70;;;;;;5056170;28;20029;-79
2022/02/11 14:29:54;;;;;;;6.30;0.50;;;7.30;66.20;;;;;;5038709;28;20028;-79
2022/02/11 14:32:20;;;;;;;11.02;0.95;;;7.40;66.90;;;;;;5041398;28;20032;-79
2022/02/11 14:34:45;;;;;;;4.75;0.55;;;7.40;67.30;;;;;;5025977;28;20102;-78
2022/02/11 14:37:11;;;;;;;6.65;0.50;;;7.40;67.10;;;;;;5036446;28;20152;-78
2022/02/11 14:39:37;;;;;;;6.20;0.88;;;7.30;67.30;;;;;;5034758;28;20493;-78
2022/02/11 14:42:07;;;;;;;10.13;0.50;;;7.30;67.20;;;;;;5036517;28;20053;-79
2022/02/11 14:44:36;;;;;;;3.28;0.30;;;7.30;67.30;;;;;;5043164;28;20389;-79
2022/02/11 14:47:08;;;;;;;4.05;0.45;;;7.30;67.30;;;;;;5041305;28;20025;-78
2022/02/11 14:49:35;;;;;;;7.72;0.40;;;7.20;67.30;;;;;;5036348;28;20040;-77
2022/02/11 14:52:07;;;;;;;6.65;0.40;;;7.10;68.10;;;;;;5037732;28;20575;-79
2022/02/11 14:54:34;;;;;;;8.95;1.00;;;7.10;68.90;;;;;;5034325;28;20633;-80
2022/02/11 14:57:00;;;;;;;8.73;1.13;;;7.00;69.60;;;;;;5035292;28;20056;-79
2022/02/11 14:59:26;;;;;;;8.07;0.80;;;7.00;70.20;;;;;;5035727;28;20485;-79
2022/02/11 15:01:53;;;;;;;6.68;0.77;;;7.10;70.90;;;;;;5039061;28;20044;-79
2022/02/11 15:04:19;;;;;;;6.47;0.80;;;7.10;70.40;;;;;;5034394;28;20029;-79
2022/02/11 15:06:48;;;;;;;8.45;0.43;;;7.00;70.40;;;;;;5037296;28;20222;-79
2022/02/11 15:09:14;;;;;;;9.98;0.60;;;7.10;70.70;;;;;;5036745;28;20035;-79
2022/02/11 15:11:42;;;;;;;4.22;0.75;;;7.10;70.40;;;;;;5040692;28;20396;-79
2022/02/11 15:14:08;;;;;;;9.40;0.45;;;7.00;70.50;;;;;;5033129;28;20021;-79
2022/02/11 15:16:34;;;;;;;7.07;0.57;;;6.90;70.50;;;;;;5033986;28;20468;-81
2022/02/11 15:19:00;;;;;;;5.97;0.30;;;6.90;70.00;;;;;;5039578;28;20017;-80
2022/02/11 15:21:26;;;;;;;7.38;0.40;;;6.80;70.30;;;;;;5037177;28;20530;-78
2022/02/11 15:23:52;;;;;;;8.88;0.68;;;6.70;70.60;;;;;;5040673;28;20056;-81
2022/02/11 15:26:18;;;;;;;7.78;0.38;;;6.80;70.90;;;;;;5038507;28;20113;-81
2022/02/11 15:28:45;;;;;;;4.03;0.30;;;6.80;71.40;;;;;;5040213;28;20102;-77
2022/02/11 15:31:12;;;;;;;5.28;0.43;;;6.80;70.80;;;;;;5039329;28;20044;-81
2022/02/11 15:33:39;;;;;;;7.28;0.40;;;6.80;70.60;;;;;;5037545;28;20477;-79
2022/02/11 15:36:05;;;;;;;3.65;0.32;;;6.80;71.10;;;;;;5058032;28;20025;-79
2022/02/11 15:38:31;;;;;;;3.42;0.25;;;6.90;71.10;;;;;;5069322;28;20095;-78
2022/02/11 15:40:57;;;;;;;3.72;0.45;;;6.80;70.60;;;;;;5061965;28;20108;-78
2022/02/11 15:43:23;;;;;;;4.65;0.35;;;6.90;71.10;;;;;;5053630;28;20439;-77
2022/02/11 15:45:48;;;;;;;6.60;0.30;;;6.90;71.20;;;;;;5052891;28;20028;-77
2022/02/11 15:48:14;;;;;;;6.93;0.40;;;6.80;71.20;;;;;;5061862;28;20036;-78
2022/02/11 15:50:41;;;;;;;11.07;0.82;;;6.80;71.40;;;;;;5059054;28;20107;-78
2022/02/11 15:53:14;;;;;;;9.27;0.63;;;6.80;72.10;;;;;;5054589;28;20028;-79
2022/02/11 15:55:40;;;;;;;6.75;0.57;;;6.60;71.60;;;;;;5062740;28;20035;-80
2022/02/11 15:58:06;;;;;;;9.60;0.43;;;6.60;72.10;;;;;;5064811;28;20107;-80
2022/02/11 16:00:33;;;;;;;7.00;0.50;;;6.40;72.70;;;;;;5042609;28;20101;-80
2022/02/11 16:03:00;;;;;;;3.85;0.40;;;6.30;73.20;;;;;;5058667;28;20052;-80
2022/02/11 16:05:26;;;;;;;8.90;0.50;;;6.20;73.60;;;;;;5059160;28;20059;-80
2022/02/11 16:07:54;;;;;;;8.85;0.50;;;6.20;74.20;;;;;;5056629;28;20071;-79
2022/02/11 16:10:21;;;;;;;8.55;0.63;;;6.00;74.60;;;;;;5059324;28;20029;-78
2022/02/11 16:12:46;;;;;;;4.97;0.85;;;5.90;75.00;;;;;;5036835;28;20031;-77
2022/02/11 16:15:15;;;;;;;7.85;0.50;;;5.90;75.40;;;;;;5060580;28;20028;-78
2022/02/11 16:18:00;;;;;;;4.53;0.35;;;5.80;76.00;;;;;;5058955;28;20036;-79
2022/02/11 16:20:33;;;;;;;4.60;1.05;;;5.70;76.60;;;;;;5053550;28;20090;-78
2022/02/11 16:22:59;;;;;;;4.38;0.30;;;5.60;77.20;;;;;;5043129;28;20430;-79
2022/02/11 16:25:25;;;;;;;4.88;0.40;;;5.60;77.70;;;;;;5052574;28;20032;-80
2022/02/11 16:27:51;;;;;;;10.00;0.57;;;5.50;78.10;;;;;;5048035;28;20040;-79
2022/02/11 16:30:18;;;;;;;6.65;0.75;;;5.50;78.80;;;;;;5052886;28;20373;-79
2022/02/11 16:32:44;;;;;;;11.60;0.77;;;5.40;79.70;;;;;;5015083;28;20024;-80
2022/02/11 16:35:09;;;;;;;7.65;0.40;;;5.30;80.20;;;;;;5037511;28;20045;-79
2022/02/11 16:37:35;;;;;;;4.68;0.60;;;5.20;81.00;;;;;;5061416;28;20035;-79
2022/02/11 16:40:00;;;;;;;7.93;1.75;;;5.20;82.10;;;;;;5057422;28;20021;-78